Time;durP1;ratioP1;P1;durP2;ratioP2;P2;SDS_P1;SDS_P2;PMS_P1;PMS_P2;Temp;Humidity;BMP_temperature;BMP_pressure;BME280_temperature;BME280_humidity;BME280_pressure;Samples;Min_cycle;Max_cycle;Signal;HPM_P1;HPM_P2
2022/01/25 00:25:44;;;;;;;8.73;3.20;;;;;;;;;;5060741;28;20284;-75
2022/01/25 00:28:20;;;;;;;6.63;3.30;;;;;;;;;;5069811;28;20204;-75
2022/01/25 00:31:00;;;;;;;6.33;3.20;;;;;;;;;;5045013;28;20181;-74
2022/01/25 00:33:26;;;;;;;4.20;3.03;;;;;;;;;;5047359;28;20205;-75
2022/01/25 00:35:51;;;;;;;4.60;2.67;;;;;;;;;;5051979;28;20343;-74
2022/01/25 00:38:16;;;;;;;3.33;2.63;;;;;;;;;;5052852;28;20223;-74
2022/01/25 00:40:42;;;;;;;6.57;4.07;;;;;;;;;;5057868;28;20192;-75
2022/01/25 00:43:07;;;;;;;3.87;3.00;;;;;;;;;;5054025;28;20177;-75
2022/01/25 00:45:32;;;;;;;4.97;3.03;;;;;;;;;;5043714;28;20181;-74
2022/01/25 00:47:57;;;;;;;4.73;2.97;;;;;;;;;;5049857;28;20272;-75
2022/01/25 00:50:23;;;;;;;7.03;3.03;;;;;;;;;;5054074;28;20185;-74
2022/01/25 00:55:14;;;;;;;4.63;2.70;;;;;;;;;;5068659;28;20199;-74
2022/01/25 00:57:40;;;;;;;6.97;3.00;;;;;;;;;;5041637;28;20277;-74
2022/01/25 01:00:07;;;;;;;4.63;3.40;;;;;;;;;;5060018;28;20231;-74
2022/01/25 01:02:32;;;;;;;3.90;2.60;;;;;;;;;;5067715;28;20259;-74
2022/01/25 01:04:57;;;;;;;7.03;3.10;;;;;;;;;;5056483;28;20177;-75
2022/01/25 01:07:23;;;;;;;5.23;3.20;;;;;;;;;;5052192;28;20255;-74
2022/01/25 01:09:51;;;;;;;4.83;2.93;;;;;;;;;;5055892;28;20260;-74
2022/01/25 01:15:18;;;;;;;4.57;2.73;;;;;;;;;;5074257;28;20180;-74
2022/01/25 01:31:57;;;;;;;8.13;3.00;;;;;;;;;;5069501;28;20520;-74
2022/01/25 01:39:57;;;;;;;4.17;3.20;;;;;;;;;;5071652;28;20211;-74
2022/01/25 01:45:13;;;;;;;4.70;3.37;;;;;;;;;;5038247;28;20192;-74
2022/01/25 01:47:48;;;;;;;6.80;3.77;;;;;;;;;;5046607;28;20518;-74
2022/01/25 01:50:25;;;;;;;5.53;3.33;;;;;;;;;;5073844;28;20275;-74
2022/01/25 01:52:51;;;;;;;4.60;3.27;;;;;;;;;;5054732;28;20178;-74
2022/01/25 01:55:16;;;;;;;5.37;3.50;;;;;;;;;;5049556;28;20207;-74
2022/01/25 01:57:42;;;;;;;5.47;4.20;;;;;;;;;;5063539;28;20227;-74
2022/01/25 02:00:07;;;;;;;5.03;3.50;;;;;;;;;;5057998;28;20178;-74
2022/01/25 02:02:33;;;;;;;7.50;4.33;;;;;;;;;;5051233;28;20189;-74
2022/01/25 02:04:58;;;;;;;6.43;4.23;;;;;;;;;;5072128;28;20166;-74
2022/01/25 02:07:23;;;;;;;7.20;4.10;;;;;;;;;;5035697;28;20178;-74
2022/01/25 02:09:48;;;;;;;5.70;3.80;;;;;;;;;;5040199;28;20174;-74
2022/01/25 02:12:13;;;;;;;6.77;4.27;;;;;;;;;;5047642;28;20184;-74
2022/01/25 02:14:40;;;;;;;3.70;3.30;;;;;;;;;;5047481;28;20289;-74
2022/01/25 02:17:25;;;;;;;8.23;4.33;;;;;;;;;;5060998;28;20182;-74
2022/01/25 02:22:48;;;;;;;5.97;4.13;;;;;;;;;;5065465;28;20354;-74
2022/01/25 02:25:13;;;;;;;6.50;4.00;;;;;;;;;;5061752;28;20182;-74
2022/01/25 02:27:38;;;;;;;7.17;4.40;;;;;;;;;;5053586;28;20189;-74
2022/01/25 02:30:04;;;;;;;7.10;4.60;;;;;;;;;;5071083;28;20184;-74
2022/01/25 02:32:29;;;;;;;6.60;4.77;;;;;;;;;;5053445;28;20246;-74
2022/01/25 02:34:54;;;;;;;8.87;5.43;;;;;;;;;;5068877;28;20193;-74
2022/01/25 02:37:19;;;;;;;9.47;5.70;;;;;;;;;;5049280;28;20223;-74
2022/01/25 02:39:45;;;;;;;7.93;5.87;;;;;;;;;;5041946;28;20193;-74
2022/01/25 02:42:11;;;;;;;6.57;4.97;;;;;;;;;;5068905;28;20184;-74
2022/01/25 02:44:37;;;;;;;8.30;5.10;;;;;;;;;;5049980;28;20174;-74
2022/01/25 02:49:28;;;;;;;9.40;5.93;;;;;;;;;;5068840;28;20173;-74
2022/01/25 02:51:54;;;;;;;9.10;6.07;;;;;;;;;;5054065;28;20251;-74
2022/01/25 02:54:19;;;;;;;7.57;5.77;;;;;;;;;;5071221;28;20189;-74
2022/01/25 02:56:45;;;;;;;9.27;6.07;;;;;;;;;;5047898;28;20171;-74
2022/01/25 02:59:11;;;;;;;8.03;5.60;;;;;;;;;;5048728;28;20194;-74
2022/01/25 03:01:39;;;;;;;9.67;5.37;;;;;;;;;;5057736;28;20179;-74
2022/01/25 03:04:06;;;;;;;10.53;5.40;;;;;;;;;;5035084;28;20211;-74
2022/01/25 03:06:31;;;;;;;7.37;4.80;;;;;;;;;;5048946;28;20174;-74
2022/01/25 03:08:56;;;;;;;9.37;5.57;;;;;;;;;;5062165;28;20228;-74
2022/01/25 03:11:23;;;;;;;7.43;5.33;;;;;;;;;;5052156;28;20181;-74
2022/01/25 03:13:51;;;;;;;7.63;5.77;;;;;;;;;;5045935;28;20208;-74
2022/01/25 03:16:33;;;;;;;7.27;5.27;;;;;;;;;;5069275;28;20220;-74
2022/01/25 03:19:02;;;;;;;9.73;5.83;;;;;;;;;;5067267;28;20230;-74
2022/01/25 03:23:52;;;;;;;9.80;7.13;;;;;;;;;;5063807;28;20170;-74
2022/01/25 03:26:18;;;;;;;9.23;6.50;;;;;;;;;;5050842;28;20174;-74
2022/01/25 03:28:44;;;;;;;7.50;5.90;;;;;;;;;;5069703;28;20186;-74
2022/01/25 03:31:10;;;;;;;10.37;6.17;;;;;;;;;;5064543;28;20191;-74
2022/01/25 03:33:35;;;;;;;8.47;5.80;;;;;;;;;;5052776;28;20196;-74
2022/01/25 03:36:00;;;;;;;7.07;5.53;;;;;;;;;;5050467;28;20375;-74
2022/01/25 03:38:26;;;;;;;7.53;5.50;;;;;;;;;;5048600;28;20205;-74
2022/01/25 03:40:51;;;;;;;7.37;5.60;;;;;;;;;;5067950;28;20162;-74
2022/01/25 03:43:18;;;;;;;7.73;5.83;;;;;;;;;;5054998;28;20272;-74
2022/01/25 03:45:56;;;;;;;7.67;5.30;;;;;;;;;;5045569;28;20212;-74
2022/01/25 03:50:48;;;;;;;7.83;4.93;;;;;;;;;;5065452;28;20170;-74
2022/01/25 03:53:14;;;;;;;11.90;6.60;;;;;;;;;;5061652;28;20355;-74
2022/01/25 03:55:39;;;;;;;10.47;6.00;;;;;;;;;;5071016;28;20213;-74
2022/01/25 03:58:05;;;;;;;9.27;5.60;;;;;;;;;;5052576;28;20206;-74
2022/01/25 04:00:30;;;;;;;9.60;6.23;;;;;;;;;;5052643;28;20177;-74
2022/01/25 04:03:02;;;;;;;9.77;6.03;;;;;;;;;;5036919;28;20235;-74
2022/01/25 04:05:48;;;;;;;8.80;5.73;;;;;;;;;;5067320;28;20486;-74
2022/01/25 04:08:13;;;;;;;10.80;6.33;;;;;;;;;;5051808;28;20190;-74
2022/01/25 04:10:39;;;;;;;11.40;7.83;;;;;;;;;;5068110;28;20260;-74
2022/01/25 04:13:04;;;;;;;18.97;13.30;;;;;;;;;;5052944;28;20181;-74
2022/01/25 04:15:30;;;;;;;16.53;10.27;;;;;;;;;;5050330;28;20253;-74
2022/01/25 04:18:03;;;;;;;18.27;10.53;;;;;;;;;;5067929;28;20205;-74
2022/01/25 04:20:34;;;;;;;13.57;8.13;;;;;;;;;;5065164;28;20174;-74
2022/01/25 04:25:43;;;;;;;9.93;7.27;;;;;;;;;;5065053;28;20182;-74
2022/01/25 04:28:09;;;;;;;11.20;7.43;;;;;;;;;;5049187;28;20197;-74
2022/01/25 04:30:34;;;;;;;10.43;6.63;;;;;;;;;;5051117;28;20187;-74
2022/01/25 04:33:03;;;;;;;11.33;7.93;;;;;;;;;;5051358;28;20223;-74
2022/01/25 04:53:59;;;;;;;9.17;7.30;;;;;;;;;;5067570;28;20239;-73
2022/01/25 04:56:33;;;;;;;9.77;6.37;;;;;;;;;;5065053;28;20189;-74
2022/01/25 04:59:07;;;;;;;10.83;7.30;;;;;;;;;;5051750;28;20204;-74
2022/01/25 05:01:34;;;;;;;12.03;6.83;;;;;;;;;;5066566;28;20169;-73
2022/01/25 05:04:04;;;;;;;8.67;5.90;;;;;;;;;;5048110;28;20170;-74
2022/01/25 05:06:31;;;;;;;7.57;5.43;;;;;;;;;;5050231;28;20182;-73
2022/01/25 05:09:06;;;;;;;10.00;5.73;;;;;;;;;;5068144;28;20185;-73
2022/01/25 05:11:34;;;;;;;11.43;6.67;;;;;;;;;;5054654;28;20207;-73
2022/01/25 05:14:15;;;;;;;9.03;6.23;;;;;;;;;;5062676;28;20180;-73
2022/01/25 05:16:59;;;;;;;12.10;6.53;;;;;;;;;;5045806;28;20178;-74
2022/01/25 05:24:36;;;;;;;9.07;6.13;;;;;;;;;;5069022;28;20204;-73
2022/01/25 05:27:02;;;;;;;7.37;5.87;;;;;;;;;;5060779;28;20335;-73
2022/01/25 05:29:27;;;;;;;15.20;6.77;;;;;;;;;;5073722;28;20238;-73
2022/01/25 05:31:52;;;;;;;7.83;5.57;;;;;;;;;;5053834;28;20181;-74
2022/01/25 05:34:17;;;;;;;9.43;6.13;;;;;;;;;;5052991;28;20202;-73
2022/01/25 05:36:43;;;;;;;10.53;6.90;;;;;;;;;;5058374;28;20260;-73
2022/01/25 05:39:16;;;;;;;10.90;7.57;;;;;;;;;;5072866;28;20220;-73
2022/01/25 05:41:42;;;;;;;11.13;7.53;;;;;;;;;;5067589;28;20260;-73
2022/01/25 05:46:42;;;;;;;11.87;7.00;;;;;;;;;;5072250;28;20184;-73
2022/01/25 05:49:07;;;;;;;12.17;7.17;;;;;;;;;;5052068;28;20579;-73
2022/01/25 05:51:33;;;;;;;11.00;7.40;;;;;;;;;;5048049;28;20239;-74
2022/01/25 05:53:58;;;;;;;9.67;7.20;;;;;;;;;;5068526;28;20174;-73
2022/01/25 05:56:23;;;;;;;13.60;7.83;;;;;;;;;;5069824;28;20306;-73
2022/01/25 05:58:48;;;;;;;11.87;7.33;;;;;;;;;;5050295;28;20204;-73
2022/01/25 06:01:13;;;;;;;14.83;7.53;;;;;;;;;;5064270;28;20307;-73
2022/01/25 06:03:41;;;;;;;15.90;7.80;;;;;;;;;;5052651;28;20211;-73
2022/01/25 06:06:07;;;;;;;15.93;7.67;;;;;;;;;;5054330;28;20180;-73
2022/01/25 06:08:32;;;;;;;11.97;7.43;;;;;;;;;;5050087;28;20272;-75
2022/01/25 06:10:57;;;;;;;10.60;6.97;;;;;;;;;;5049633;28;20183;-77
2022/01/25 06:13:22;;;;;;;9.30;7.00;;;;;;;;;;5051557;28;20246;-78
2022/01/25 06:15:47;;;;;;;13.33;7.73;;;;;;;;;;5055396;28;20223;-77
2022/01/25 06:18:13;;;;;;;9.70;5.65;;;;;;;;;;5052887;28;20189;-77
2022/01/25 06:20:38;;;;;;;7.47;5.10;;;;;;;;;;5047594;28;20181;-77
2022/01/25 06:23:03;;;;;;;7.93;6.07;;;;;;;;;;5052772;28;20262;-78
2022/01/25 06:25:28;;;;;;;9.33;5.97;;;;;;;;;;5055210;28;20229;-77
2022/01/25 06:27:53;;;;;;;11.20;5.87;;;;;;;;;;5050383;28;20213;-77
2022/01/25 06:30:20;;;;;;;9.83;6.93;;;;;;;;;;5054317;28;20185;-77
2022/01/25 06:32:46;;;;;;;12.43;6.37;;;;;;;;;;5054267;28;20230;-77
2022/01/25 06:35:11;;;;;;;13.40;6.53;;;;;;;;;;5058781;28;20188;-77
2022/01/25 06:37:37;;;;;;;13.53;6.30;;;;;;;;;;5058922;28;20208;-77
2022/01/25 06:40:06;;;;;;;9.93;5.90;;;;;;;;;;5065756;28;20206;-78
2022/01/25 06:42:32;;;;;;;10.27;7.07;;;;;;;;;;5053027;28;20174;-77
2022/01/25 06:44:59;;;;;;;8.80;6.43;;;;;;;;;;5058781;28;20395;-78
2022/01/25 06:47:27;;;;;;;10.73;8.37;;;;;;;;;;5052442;28;20232;-78
2022/01/25 06:49:52;;;;;;;14.00;9.20;;;;;;;;;;5063885;28;20220;-78
2022/01/25 06:52:17;;;;;;;9.47;7.33;;;;;;;;;;5061108;28;20178;-77
2022/01/25 06:54:43;;;;;;;11.77;8.33;;;;;;;;;;5049329;28;20176;-78
2022/01/25 06:57:08;;;;;;;12.07;8.20;;;;;;;;;;5050328;28;20178;-78
2022/01/25 06:59:33;;;;;;;7.50;6.07;;;;;;;;;;5055824;28;20213;-78
2022/01/25 07:02:00;;;;;;;8.67;6.83;;;;;;;;;;5054459;28;20285;-78
2022/01/25 07:04:25;;;;;;;10.90;9.67;;;;;;;;;;5075709;28;20296;-78
2022/01/25 07:06:50;;;;;;;13.87;9.60;;;;;;;;;;5066473;28;20204;-78
2022/01/25 07:09:15;;;;;;;13.33;6.13;;;;;;;;;;5037364;28;20185;-79
2022/01/25 07:11:41;;;;;;;10.57;5.77;;;;;;;;;;5068323;28;20183;-79
2022/01/25 07:14:06;;;;;;;10.10;7.57;;;;;;;;;;5053037;28;20182;-79
2022/01/25 07:16:31;;;;;;;10.27;7.03;;;;;;;;;;5069410;28;20319;-78
2022/01/25 07:18:56;;;;;;;8.90;5.37;;;;;;;;;;5032363;28;20206;-79
2022/01/25 07:21:21;;;;;;;9.47;5.50;;;;;;;;;;5050409;28;20255;-79
2022/01/25 07:23:47;;;;;;;8.10;5.80;;;;;;;;;;5057199;28;20182;-79
2022/01/25 07:26:12;;;;;;;9.87;6.27;;;;;;;;;;5055010;28;20169;-79
2022/01/25 07:28:37;;;;;;;12.23;6.20;;;;;;;;;;5056005;28;20177;-78
2022/01/25 07:31:02;;;;;;;9.37;5.73;;;;;;;;;;5052306;28;20175;-79
2022/01/25 07:33:28;;;;;;;6.97;5.03;;;;;;;;;;5045688;28;20203;-79
2022/01/25 07:35:53;;;;;;;10.73;6.93;;;;;;;;;;5063516;28;20175;-79
2022/01/25 07:38:18;;;;;;;12.60;7.07;;;;;;;;;;5045175;28;20218;-79
2022/01/25 07:40:44;;;;;;;12.10;7.57;;;;;;;;;;5044931;28;20176;-79
2022/01/25 07:43:09;;;;;;;16.17;9.97;;;;;;;;;;5066239;28;20173;-80
2022/01/25 07:45:36;;;;;;;12.83;9.43;;;;;;;;;;5051925;28;20177;-80
2022/01/25 07:48:03;;;;;;;12.10;8.20;;;;;;;;;;5068283;28;20205;-80
2022/01/25 07:50:28;;;;;;;12.27;8.43;;;;;;;;;;5069338;28;20177;-80
2022/01/25 07:52:54;;;;;;;9.67;5.20;;;;;;;;;;5050649;28;20274;-80
2022/01/25 07:55:19;;;;;;;14.13;7.00;;;;;;;;;;5054198;28;20280;-80
2022/01/25 07:57:45;;;;;;;10.83;6.80;;;;;;;;;;5058657;28;20275;-80
2022/01/25 08:00:10;;;;;;;12.20;7.67;;;;;;;;;;5056386;28;20181;-80
2022/01/25 08:02:35;;;;;;;13.37;8.40;;;;;;;;;;5044361;28;20184;-80
2022/01/25 08:05:01;;;;;;;12.50;8.30;;;;;;;;;;5049845;28;20201;-81
2022/01/25 08:07:26;;;;;;;10.23;7.37;;;;;;;;;;5049618;28;20186;-81
2022/01/25 08:09:51;;;;;;;12.50;8.37;;;;;;;;;;5046384;28;20189;-81
2022/01/25 08:12:16;;;;;;;12.00;9.43;;;;;;;;;;5050748;28;20182;-81
2022/01/25 08:14:43;;;;;;;10.37;6.53;;;;;;;;;;5051122;28;20269;-81
2022/01/25 08:17:08;;;;;;;9.27;5.77;;;;;;;;;;5045765;28;20204;-81
2022/01/25 08:19:34;;;;;;;12.03;5.93;;;;;;;;;;5044075;28;20229;-81
2022/01/25 08:21:59;;;;;;;11.33;7.10;;;;;;;;;;5043275;28;20247;-81
2022/01/25 08:24:25;;;;;;;12.27;7.47;;;;;;;;;;5059203;28;20187;-81
2022/01/25 08:26:50;;;;;;;12.50;7.03;;;;;;;;;;5047611;28;20245;-81
2022/01/25 08:29:16;;;;;;;19.63;9.43;;;;;;;;;;5047517;28;20204;-81
2022/01/25 08:31:41;;;;;;;17.17;9.33;;;;;;;;;;5049972;28;20173;-81
2022/01/25 08:34:07;;;;;;;19.87;11.67;;;;;;;;;;5049121;28;20205;-81
2022/01/25 08:36:34;;;;;;;17.43;10.40;;;;;;;;;;5058036;28;20238;-82
2022/01/25 08:39:00;;;;;;;20.57;11.23;;;;;;;;;;5054954;28;20288;-82
2022/01/25 08:41:25;;;;;;;18.30;11.77;;;;;;;;;;5052096;28;20253;-82
2022/01/25 08:43:50;;;;;;;17.87;9.57;;;;;;;;;;5041067;28;20309;-82
2022/01/25 08:46:15;;;;;;;14.53;9.40;;;;;;;;;;5041632;28;20211;-82
2022/01/25 08:48:41;;;;;;;15.70;10.17;;;;;;;;;;5047258;28;20186;-83
2022/01/25 08:51:06;;;;;;;14.17;9.93;;;;;;;;;;5049838;28;20189;-82
2022/01/25 08:53:32;;;;;;;13.70;8.10;;;;;;;;;;5067308;28;20313;-83
2022/01/25 08:55:57;;;;;;;10.90;7.60;;;;;;;;;;5048719;28;20189;-83
2022/01/25 08:58:22;;;;;;;11.43;7.07;;;;;;;;;;5054805;28;20214;-82
2022/01/25 09:00:48;;;;;;;12.53;7.20;;;;;;;;;;5049382;28;20173;-82
2022/01/25 09:03:13;;;;;;;12.10;7.57;;;;;;;;;;5058050;28;20177;-82
2022/01/25 09:05:38;;;;;;;15.37;9.60;;;;;;;;;;5054005;28;20260;-82
2022/01/25 09:08:05;;;;;;;13.37;8.57;;;;;;;;;;5069405;28;20174;-81
2022/01/25 09:10:30;;;;;;;18.87;11.30;;;;;;;;;;5054946;28;20276;-83
2022/01/25 09:12:55;;;;;;;13.43;8.80;;;;;;;;;;5054117;28;20266;-83
2022/01/25 09:15:21;;;;;;;13.00;8.30;;;;;;;;;;5054037;28;20181;-82
2022/01/25 09:17:47;;;;;;;14.20;8.47;;;;;;;;;;5055341;28;20189;-83
2022/01/25 09:20:12;;;;;;;18.50;8.83;;;;;;;;;;5050140;28;20492;-83
2022/01/25 09:22:37;;;;;;;14.23;8.83;;;;;;;;;;5037136;28;20228;-83
2022/01/25 09:25:03;;;;;;;20.40;11.43;;;;;;;;;;5029454;28;20175;-83
2022/01/25 09:27:28;;;;;;;15.37;10.00;;;;;;;;;;5042931;28;20186;-82
2022/01/25 09:29:53;;;;;;;18.40;11.40;;;;;;;;;;5031214;28;20185;-82
2022/01/25 09:32:19;;;;;;;21.43;11.07;;;;;;;;;;5028067;28;20193;-82
2022/01/25 09:34:45;;;;;;;19.03;10.43;;;;;;;;;;5039532;28;20281;-82
2022/01/25 09:37:10;;;;;;;15.83;10.93;;;;;;;;;;5028082;28;20233;-82
2022/01/25 09:39:35;;;;;;;17.93;10.93;;;;;;;;;;5034007;28;20207;-82
2022/01/25 09:42:03;;;;;;;11.93;8.07;;;;;;;;;;5033873;28;20300;-82
2022/01/25 09:44:28;;;;;;;16.23;10.57;;;;;;;;;;5033985;28;20219;-82
2022/01/25 09:46:55;;;;;;;16.67;9.70;;;;;;;;;;5034738;28;20209;-82
2022/01/25 09:49:20;;;;;;;18.23;10.93;;;;;;;;;;5034915;28;20190;-81
2022/01/25 09:51:46;;;;;;;18.17;9.13;;;;;;;;;;5034316;28;20182;-82
2022/01/25 09:54:11;;;;;;;20.33;12.83;;;;;;;;;;5036892;28;20202;-82
2022/01/25 09:56:36;;;;;;;19.37;11.40;;;;;;;;;;5033117;28;20178;-82
2022/01/25 09:59:01;;;;;;;20.27;11.90;;;;;;;;;;5043791;28;20276;-81
2022/01/25 10:01:28;;;;;;;21.03;12.70;;;;;;;;;;5031220;28;20301;-81
2022/01/25 10:03:53;;;;;;;27.30;12.93;;;;;;;;;;5030381;28;20193;-82
2022/01/25 10:06:21;;;;;;;21.77;12.87;;;;;;;;;;5033560;28;20177;-82
2022/01/25 10:08:49;;;;;;;16.40;9.93;;;;;;;;;;5028886;28;20179;-81
2022/01/25 10:11:15;;;;;;;18.80;10.57;;;;;;;;;;5032790;28;20193;-81
2022/01/25 10:13:42;;;;;;;16.90;10.93;;;;;;;;;;5031723;28;20186;-81
2022/01/25 10:16:08;;;;;;;15.70;9.57;;;;;;;;;;5026029;28;20209;-82
2022/01/25 10:18:42;;;;;;;17.67;10.73;;;;;;;;;;5049627;28;20206;-81
2022/01/25 10:21:26;;;;;;;15.40;10.30;;;;;;;;;;5026681;28;20596;-81
2022/01/25 10:23:58;;;;;;;16.27;9.57;;;;;;;;;;5052090;28;20173;-80
2022/01/25 10:26:23;;;;;;;14.83;9.20;;;;;;;;;;5039283;28;20173;-80
2022/01/25 10:28:50;;;;;;;18.23;10.80;;;;;;;;;;5055532;28;20169;-80
2022/01/25 10:31:15;;;;;;;18.23;12.07;;;;;;;;;;5048576;28;20185;-80
2022/01/25 10:33:50;;;;;;;19.97;13.50;;;;;;;;;;5046416;28;20193;-79
2022/01/25 10:36:17;;;;;;;18.47;11.50;;;;;;;;;;5052114;28;20189;-79
2022/01/25 10:38:44;;;;;;;19.33;10.13;;;;;;;;;;5051995;28;20197;-79
2022/01/25 10:41:11;;;;;;;14.13;9.73;;;;;;;;;;5044143;28;20261;-78
2022/01/25 10:43:37;;;;;;;14.17;10.27;;;;;;;;;;5044356;28;20177;-79
2022/01/25 10:46:16;;;;;;;15.30;10.77;;;;;;;;;;5044561;28;20201;-78
2022/01/25 10:48:48;;;;;;;15.97;9.30;;;;;;;;;;5047497;28;20179;-78
2022/01/25 10:51:19;;;;;;;19.17;11.97;;;;;;;;;;5045375;28;20201;-78
2022/01/25 10:53:44;;;;;;;17.30;11.53;;;;;;;;;;5052360;28;20206;-78
2022/01/25 10:56:10;;;;;;;17.07;11.60;;;;;;;;;;5042937;28;20178;-78
2022/01/25 10:58:40;;;;;;;20.70;12.47;;;;;;;;;;5049063;28;20284;-78
2022/01/25 11:01:05;;;;;;;16.93;11.63;;;;;;;;;;5051468;28;20174;-78
2022/01/25 11:03:32;;;;;;;18.30;11.50;;;;;;;;;;5053416;28;20174;-78
2022/01/25 11:06:07;;;;;;;18.73;10.60;;;;;;;;;;5062282;28;20170;-78
2022/01/25 11:08:35;;;;;;;18.10;11.20;;;;;;;;;;5066664;28;20183;-78
2022/01/25 11:11:02;;;;;;;16.37;12.10;;;;;;;;;;5034337;28;20178;-78
2022/01/25 11:15:53;;;;;;;13.30;9.73;;;;;;;;;;5065161;28;20176;-78
2022/01/25 11:18:18;;;;;;;15.87;10.27;;;;;;;;;;5043118;28;20244;-78
2022/01/25 11:20:43;;;;;;;13.80;9.47;;;;;;;;;;5045376;28;20166;-78
2022/01/25 11:23:09;;;;;;;14.13;10.83;;;;;;;;;;5012253;28;1033355;-79
2022/01/25 11:25:34;;;;;;;16.10;9.20;;;;;;;;;;5049313;28;20424;-79
2022/01/25 11:28:00;;;;;;;11.10;8.93;;;;;;;;;;5068281;28;20200;-79
2022/01/25 11:30:25;;;;;;;17.50;9.97;;;;;;;;;;5048155;28;20270;-79
2022/01/25 11:32:51;;;;;;;13.40;8.03;;;;;;;;;;5048209;28;20174;-79
2022/01/25 11:35:23;;;;;;;13.47;8.43;;;;;;;;;;5051032;28;20268;-79
2022/01/25 11:37:49;;;;;;;14.80;9.63;;;;;;;;;;5052419;28;20226;-80
2022/01/25 11:40:26;;;;;;;11.60;8.77;;;;;;;;;;5041915;28;20182;-79
2022/01/25 11:42:52;;;;;;;15.13;8.97;;;;;;;;;;5045189;28;20173;-79
2022/01/25 11:45:22;;;;;;;16.80;10.73;;;;;;;;;;5045485;28;20182;-79
2022/01/25 11:47:48;;;;;;;12.97;7.93;;;;;;;;;;5070092;28;20466;-79
2022/01/25 11:50:14;;;;;;;13.70;9.53;;;;;;;;;;5041616;28;20166;-79
2022/01/25 11:52:47;;;;;;;14.63;10.53;;;;;;;;;;5044586;28;20285;-79
2022/01/25 11:55:29;;;;;;;15.97;10.30;;;;;;;;;;5045810;28;20177;-79
2022/01/25 11:57:57;;;;;;;14.93;10.73;;;;;;;;;;5046326;28;20162;-79
2022/01/25 12:00:34;;;;;;;12.60;7.23;;;;;;;;;;5045948;28;20231;-79
2022/01/25 12:03:01;;;;;;;13.67;8.63;;;;;;;;;;5047902;28;20180;-79
2022/01/25 12:05:27;;;;;;;18.60;10.67;;;;;;;;;;5050080;28;20170;-79
2022/01/25 12:08:10;;;;;;;16.47;10.80;;;;;;;;;;5066368;28;20176;-79
2022/01/25 12:10:38;;;;;;;17.13;10.50;;;;;;;;;;5066673;28;20241;-78
2022/01/25 12:13:16;;;;;;;12.57;8.77;;;;;;;;;;5051941;28;20177;-79
2022/01/25 12:15:42;;;;;;;14.70;9.83;;;;;;;;;;5055198;28;20254;-79
2022/01/25 12:18:08;;;;;;;12.93;9.03;;;;;;;;;;5069818;28;20208;-78
2022/01/25 12:20:45;;;;;;;16.40;9.77;;;;;;;;;;5052117;28;20174;-78
2022/01/25 12:23:16;;;;;;;14.40;9.00;;;;;;;;;;5041787;28;20224;-78
2022/01/25 12:25:52;;;;;;;15.70;11.17;;;;;;;;;;5050905;28;20176;-79
2022/01/25 12:28:22;;;;;;;16.77;10.43;;;;;;;;;;5025910;28;20351;-78
2022/01/25 12:30:47;;;;;;;15.57;10.90;;;;;;;;;;5026984;28;20267;-79
2022/01/25 12:33:15;;;;;;;14.57;8.73;;;;;;;;;;5026157;28;20236;-79
2022/01/25 12:35:50;;;;;;;14.67;9.80;;;;;;;;;;5106640;22;20249;-77
2022/01/25 12:38:20;;;;;;;17.27;10.47;;;;;;;;;;5012643;28;20214;-77
2022/01/25 12:40:50;;;;;;;14.27;9.17;;;;;;;;;;5013298;28;20178;-77
2022/01/25 12:43:18;;;;;;;23.60;12.33;;;;;;;;;;5007527;28;20187;-77
2022/01/25 12:46:04;;;;;;;16.33;11.57;;;;;;;;;;5012074;28;20190;-77
2022/01/25 12:48:31;;;;;;;16.93;11.60;;;;;;;;;;5029048;28;20201;-77
2022/01/25 12:50:57;;;;;;;13.87;11.30;;;;;;;;;;5030321;28;20171;-77
2022/01/25 12:53:24;;;;;;;12.80;9.63;;;;;;;;;;5012583;28;20185;-77
2022/01/25 12:55:51;;;;;;;13.10;9.97;;;;;;;;;;5010322;28;20202;-77
2022/01/25 12:58:27;;;;;;;13.57;10.53;;;;;;;;;;5012303;28;20290;-77
2022/01/25 13:00:53;;;;;;;17.07;10.10;;;;;;;;;;5013608;28;20232;-77
2022/01/25 13:03:32;;;;;;;20.37;12.47;;;;;;;;;;5013199;28;20187;-76
2022/01/25 13:05:57;;;;;;;20.07;12.03;;;;;;;;;;5004684;28;20175;-76
2022/01/25 13:08:26;;;;;;;17.17;10.73;;;;;;;;;;5012062;28;20256;-77
2022/01/25 13:10:54;;;;;;;14.13;11.27;;;;;;;;;;5029490;28;20178;-77
2022/01/25 13:13:32;;;;;;;16.53;11.83;;;;;;;;;;5004939;28;20184;-77
2022/01/25 13:15:58;;;;;;;16.33;12.73;;;;;;;;;;5028729;28;20206;-77
2022/01/25 13:18:26;;;;;;;17.03;10.87;;;;;;;;;;5011610;28;20203;-77
2022/01/25 13:21:17;;;;;;;17.23;13.57;;;;;;;;;;5012871;28;20182;-77
2022/01/25 13:23:50;;;;;;;23.23;12.40;;;;;;;;;;5021453;28;20175;-77
2022/01/25 13:26:15;;;;;;;14.30;11.13;;;;;;;;;;5029888;28;20191;-77
2022/01/25 13:31:15;;;;;;;16.17;10.90;;;;;;;;;;5029034;28;20217;-77
2022/01/25 13:33:41;;;;;;;17.33;10.97;;;;;;;;;;5023181;28;20240;-77
2022/01/25 13:36:08;;;;;;;15.53;10.97;;;;;;;;;;5016445;28;20249;-78
2022/01/25 13:38:36;;;;;;;16.67;11.97;;;;;;;;;;5011111;28;20210;-78
2022/01/25 13:41:19;;;;;;;17.33;10.97;;;;;;;;;;5005737;28;20173;-78
2022/01/25 13:46:28;;;;;;;18.00;11.67;;;;;;;;;;5027663;28;20194;-78
2022/01/25 13:48:58;;;;;;;14.63;10.10;;;;;;;;;;5014178;28;20183;-78
2022/01/25 13:51:25;;;;;;;12.93;10.13;;;;;;;;;;5006180;28;20187;-78
2022/01/25 13:53:53;;;;;;;12.33;7.47;;;;;;;;;;5008956;28;20191;-78
2022/01/25 13:56:19;;;;;;;16.43;9.37;;;;;;;;;;5012828;28;20189;-78
2022/01/25 13:58:46;;;;;;;17.07;9.63;;;;;;;;;;5027339;28;20215;-78
2022/01/25 14:01:13;;;;;;;16.10;11.27;;;;;;;;;;5007986;28;20206;-78
2022/01/25 14:03:52;;;;;;;16.00;11.40;;;;;;;;;;5013571;28;20290;-78
2022/01/25 14:06:23;;;;;;;14.93;9.90;;;;;;;;;;5012556;28;20179;-78
2022/01/25 14:08:49;;;;;;;14.37;9.20;;;;;;;;;;5009007;28;20209;-77
2022/01/25 14:21:38;;;;;;;16.43;10.30;;;;;;;;;;5009184;28;20183;-77
2022/01/25 14:25:36;;;;;;;14.07;9.87;;;;;;;;;;5025772;28;20180;-77
2022/01/25 14:28:03;;;;;;;16.13;10.47;;;;;;;;;;5013353;28;20185;-78
2022/01/25 14:30:33;;;;;;;14.27;10.37;;;;;;;;;;5011956;28;20180;-78
2022/01/25 14:33:18;;;;;;;14.57;9.70;;;;;;;;;;5011176;28;20200;-78
2022/01/25 14:35:56;;;;;;;13.93;9.43;;;;;;;;;;5040832;28;20296;-78
2022/01/25 14:38:26;;;;;;;12.33;9.00;;;;;;;;;;5032128;28;20208;-78
2022/01/25 14:41:02;;;;;;;14.07;9.83;;;;;;;;;;5022560;28;20166;-78
2022/01/25 14:43:35;;;;;;;14.00;8.70;;;;;;;;;;5046803;28;20177;-78
2022/01/25 14:46:01;;;;;;;13.60;8.67;;;;;;;;;;5026851;28;20181;-77
2022/01/25 14:48:26;;;;;;;17.10;11.43;;;;;;;;;;5032088;28;20215;-77
2022/01/25 14:50:59;;;;;;;15.80;12.60;;;;;;;;;;5042621;28;20261;-78
2022/01/25 14:53:24;;;;;;;15.57;11.07;;;;;;;;;;5031183;28;20181;-77
2022/01/25 14:55:51;;;;;;;16.70;11.83;;;;;;;;;;5033316;28;20273;-78
2022/01/25 15:00:45;;;;;;;14.37;11.63;;;;;;;;;;5046514;28;20198;-77
2022/01/25 15:03:10;;;;;;;16.57;11.70;;;;;;;;;;5029519;28;20194;-78
2022/01/25 15:05:35;;;;;;;16.07;12.47;;;;;;;;;;5033412;28;20247;-78
2022/01/25 15:08:00;;;;;;;20.10;12.40;;;;;;;;;;5050691;28;20182;-78
2022/01/25 15:10:31;;;;;;;17.07;14.03;;;;;;;;;;5032002;28;20173;-77
2022/01/25 15:12:56;;;;;;;14.97;12.90;;;;;;;;;;5033629;28;20179;-77
2022/01/25 15:15:27;;;;;;;16.27;12.77;;;;;;;;;;5027511;28;20254;-78
2022/01/25 15:17:53;;;;;;;13.33;9.67;;;;;;;;;;5034204;28;20182;-78
2022/01/25 15:20:19;;;;;;;17.03;11.53;;;;;;;;;;5039475;28;20185;-78
2022/01/25 15:22:45;;;;;;;15.93;11.87;;;;;;;;;;5033410;28;20239;-78
2022/01/25 15:25:13;;;;;;;19.50;12.77;;;;;;;;;;5032539;28;20185;-78
2022/01/25 15:27:38;;;;;;;15.57;12.10;;;;;;;;;;5037412;28;20195;-78
2022/01/25 15:30:05;;;;;;;17.43;12.43;;;;;;;;;;5052650;28;20182;-77
2022/01/25 15:32:30;;;;;;;18.83;12.80;;;;;;;;;;5029025;28;20175;-78
2022/01/25 15:34:55;;;;;;;19.23;12.67;;;;;;;;;;5048241;28;20231;-78
2022/01/25 15:37:21;;;;;;;17.27;13.37;;;;;;;;;;5024495;28;20184;-78
2022/01/25 15:39:46;;;;;;;22.50;13.50;;;;;;;;;;5026992;28;20346;-77
2022/01/25 15:42:13;;;;;;;18.30;13.90;;;;;;;;;;5028723;28;20185;-77
2022/01/25 15:44:49;;;;;;;19.03;13.13;;;;;;;;;;5029408;28;20170;-78
2022/01/25 15:47:15;;;;;;;16.97;12.63;;;;;;;;;;5016116;28;20195;-77
2022/01/25 15:49:41;;;;;;;18.33;12.47;;;;;;;;;;5032547;28;20252;-78
2022/01/25 15:52:07;;;;;;;15.93;10.93;;;;;;;;;;5031696;28;20188;-77
2022/01/25 15:54:33;;;;;;;15.30;10.83;;;;;;;;;;5025963;28;20171;-77
2022/01/25 15:56:58;;;;;;;25.37;16.43;;;;;;;;;;5030192;28;20178;-77
2022/01/25 15:59:24;;;;;;;18.97;14.10;;;;;;;;;;5024402;28;20286;-78
2022/01/25 16:01:52;;;;;;;17.27;11.87;;;;;;;;;;5027213;28;20168;-77
2022/01/25 16:04:17;;;;;;;16.57;12.40;;;;;;;;;;5016297;28;20178;-77
2022/01/25 16:06:43;;;;;;;14.50;11.83;;;;;;;;;;5023563;28;20268;-77
2022/01/25 16:09:08;;;;;;;16.73;11.97;;;;;;;;;;5029637;28;20237;-78
2022/01/25 16:11:33;;;;;;;25.60;17.13;;;;;;;;;;5017869;28;20167;-78
2022/01/25 16:13:59;;;;;;;18.10;13.73;;;;;;;;;;5026566;28;20257;-77
2022/01/25 16:16:24;;;;;;;18.73;13.03;;;;;;;;;;5025205;28;20180;-78
2022/01/25 16:18:50;;;;;;;15.90;11.87;;;;;;;;;;5017628;28;20241;-77
2022/01/25 16:21:16;;;;;;;21.70;14.67;;;;;;;;;;5031325;28;20215;-78
2022/01/25 16:23:41;;;;;;;19.27;14.73;;;;;;;;;;5033285;28;20201;-78